sensor_id;sensor_type;location;lat;lon;timestamp;P1;durP1;ratioP1;P2;durP2;ratioP2
62796;SDS011;48839;48.546;-4.178;2023-06-24T00:00:05;10.90;;;5.53;;
62796;SDS011;48839;48.546;-4.178;2023-06-24T00:02:36;9.90;;;5.93;;
62796;SDS011;48839;48.546;-4.178;2023-06-24T00:05:03;10.93;;;5.65;;
62796;SDS011;48839;48.546;-4.178;2023-06-24T00:07:29;8.15;;;5.60;;
62796;SDS011;48839;48.546;-4.178;2023-06-24T00:09:55;9.02;;;5.43;;
62796;SDS011;48839;48.546;-4.178;2023-06-24T00:12:21;10.40;;;5.93;;
62796;SDS011;48839;48.546;-4.178;2023-06-24T00:14:47;9.68;;;6.20;;
62796;SDS011;48839;48.546;-4.178;2023-06-24T00:17:13;11.10;;;6.00;;
62796;SDS011;48839;48.546;-4.178;2023-06-24T00:19:41;11.57;;;7.15;;
62796;SDS011;48839;48.546;-4.178;2023-06-24T00:22:09;9.73;;;6.70;;
62796;SDS011;48839;48.546;-4.178;2023-06-24T00:24:35;8.40;;;5.57;;
62796;SDS011;48839;48.546;-4.178;2023-06-24T00:27:01;17.30;;;7.55;;
62796;SDS011;48839;48.546;-4.178;2023-06-24T00:29:27;7.88;;;5.32;;
62796;SDS011;48839;48.546;-4.178;2023-06-24T00:31:53;9.00;;;5.30;;
62796;SDS011;48839;48.546;-4.178;2023-06-24T00:34:19;7.03;;;4.53;;
62796;SDS011;48839;48.546;-4.178;2023-06-24T00:36:45;8.82;;;5.43;;
62796;SDS011;48839;48.546;-4.178;2023-06-24T00:39:12;7.63;;;5.15;;
62796;SDS011;48839;48.546;-4.178;2023-06-24T00:41:38;8.30;;;5.50;;
62796;SDS011;48839;48.546;-4.178;2023-06-24T00:44:04;7.85;;;5.35;;
62796;SDS011;48839;48.546;-4.178;2023-06-24T00:46:30;8.25;;;5.38;;
62796;SDS011;48839;48.546;-4.178;2023-06-24T00:48:59;8.90;;;5.22;;
62796;SDS011;48839;48.546;-4.178;2023-06-24T00:51:27;8.35;;;5.05;;
62796;SDS011;48839;48.546;-4.178;2023-06-24T00:53:59;13.32;;;5.55;;
62796;SDS011;48839;48.546;-4.178;2023-06-24T00:56:25;6.35;;;4.50;;
62796;SDS011;48839;48.546;-4.178;2023-06-24T00:58:53;8.55;;;5.03;;
62796;SDS011;48839;48.546;-4.178;2023-06-24T01:01:20;6.88;;;4.63;;
62796;SDS011;48839;48.546;-4.178;2023-06-24T01:03:46;6.78;;;4.50;;
62796;SDS011;48839;48.546;-4.178;2023-06-24T01:06:12;7.15;;;4.30;;
62796;SDS011;48839;48.546;-4.178;2023-06-24T01:08:39;8.68;;;4.65;;
62796;SDS011;48839;48.546;-4.178;2023-06-24T01:11:05;5.65;;;3.97;;
62796;SDS011;48839;48.546;-4.178;2023-06-24T01:13:32;5.20;;;3.78;;
62796;SDS011;48839;48.546;-4.178;2023-06-24T01:15:59;5.43;;;4.07;;
62796;SDS011;48839;48.546;-4.178;2023-06-24T01:18:38;6.22;;;4.00;;
62796;SDS011;48839;48.546;-4.178;2023-06-24T01:21:09;5.72;;;4.32;;
62796;SDS011;48839;48.546;-4.178;2023-06-24T01:27:04;6.70;;;4.68;;
62796;SDS011;48839;48.546;-4.178;2023-06-24T01:29:42;9.27;;;5.47;;
62796;SDS011;48839;48.546;-4.178;2023-06-24T01:34:40;8.45;;;5.03;;
62796;SDS011;48839;48.546;-4.178;2023-06-24T01:37:14;7.82;;;4.93;;
62796;SDS011;48839;48.546;-4.178;2023-06-24T01:40:05;7.55;;;5.55;;
62796;SDS011;48839;48.546;-4.178;2023-06-24T01:42:34;8.07;;;5.13;;
62796;SDS011;48839;48.546;-4.178;2023-06-24T01:45:01;7.75;;;5.25;;
62796;SDS011;48839;48.546;-4.178;2023-06-24T01:47:28;8.38;;;5.15;;
62796;SDS011;48839;48.546;-4.178;2023-06-24T01:49:54;7.43;;;4.28;;
62796;SDS011;48839;48.546;-4.178;2023-06-24T01:52:22;8.35;;;5.10;;
62796;SDS011;48839;48.546;-4.178;2023-06-24T01:54:49;7.13;;;4.70;;
62796;SDS011;48839;48.546;-4.178;2023-06-24T01:57:15;6.53;;;4.55;;
62796;SDS011;48839;48.546;-4.178;2023-06-24T01:59:43;8.35;;;5.03;;
62796;SDS011;48839;48.546;-4.178;2023-06-24T02:02:11;6.82;;;4.88;;
62796;SDS011;48839;48.546;-4.178;2023-06-24T02:04:37;8.68;;;4.72;;
62796;SDS011;48839;48.546;-4.178;2023-06-24T02:07:04;8.20;;;4.93;;
62796;SDS011;48839;48.546;-4.178;2023-06-24T02:09:31;7.55;;;4.82;;
62796;SDS011;48839;48.546;-4.178;2023-06-24T02:11:58;8.65;;;4.20;;
62796;SDS011;48839;48.546;-4.178;2023-06-24T02:14:25;7.60;;;4.80;;
62796;SDS011;48839;48.546;-4.178;2023-06-24T02:16:52;9.82;;;4.65;;
62796;SDS011;48839;48.546;-4.178;2023-06-24T02:19:21;6.75;;;4.63;;
62796;SDS011;48839;48.546;-4.178;2023-06-24T02:21:47;10.90;;;4.10;;
62796;SDS011;48839;48.546;-4.178;2023-06-24T02:24:14;8.52;;;4.65;;
62796;SDS011;48839;48.546;-4.178;2023-06-24T02:26:40;6.95;;;5.20;;
62796;SDS011;48839;48.546;-4.178;2023-06-24T02:29:09;10.32;;;5.13;;
62796;SDS011;48839;48.546;-4.178;2023-06-24T02:31:36;11.85;;;4.97;;
62796;SDS011;48839;48.546;-4.178;2023-06-24T02:34:02;6.65;;;4.47;;
62796;SDS011;48839;48.546;-4.178;2023-06-24T02:36:28;7.28;;;4.70;;
62796;SDS011;48839;48.546;-4.178;2023-06-24T02:38:54;8.27;;;4.43;;
62796;SDS011;48839;48.546;-4.178;2023-06-24T02:41:20;11.32;;;5.18;;
62796;SDS011;48839;48.546;-4.178;2023-06-24T02:43:46;7.72;;;5.25;;
62796;SDS011;48839;48.546;-4.178;2023-06-24T02:46:12;8.98;;;5.68;;
62796;SDS011;48839;48.546;-4.178;2023-06-24T02:48:39;7.97;;;5.20;;
62796;SDS011;48839;48.546;-4.178;2023-06-24T02:51:06;10.02;;;5.93;;
62796;SDS011;48839;48.546;-4.178;2023-06-24T02:53:32;8.60;;;5.43;;
62796;SDS011;48839;48.546;-4.178;2023-06-24T02:55:59;9.63;;;5.75;;
62796;SDS011;48839;48.546;-4.178;2023-06-24T02:58:28;11.57;;;6.50;;
62796;SDS011;48839;48.546;-4.178;2023-06-24T03:00:57;11.05;;;6.55;;
62796;SDS011;48839;48.546;-4.178;2023-06-24T03:03:23;9.32;;;5.95;;
62796;SDS011;48839;48.546;-4.178;2023-06-24T03:05:50;10.27;;;6.55;;
62796;SDS011;48839;48.546;-4.178;2023-06-24T03:08:18;9.50;;;5.75;;
62796;SDS011;48839;48.546;-4.178;2023-06-24T03:10:45;9.85;;;5.93;;
62796;SDS011;48839;48.546;-4.178;2023-06-24T03:13:11;10.43;;;5.57;;
62796;SDS011;48839;48.546;-4.178;2023-06-24T03:15:37;9.13;;;5.90;;
62796;SDS011;48839;48.546;-4.178;2023-06-24T03:18:03;11.60;;;6.32;;
62796;SDS011;48839;48.546;-4.178;2023-06-24T03:20:29;9.32;;;5.60;;
62796;SDS011;48839;48.546;-4.178;2023-06-24T03:23:03;9.80;;;5.57;;
62796;SDS011;48839;48.546;-4.178;2023-06-24T03:25:29;9.02;;;6.07;;
62796;SDS011;48839;48.546;-4.178;2023-06-24T03:27:55;9.25;;;5.03;;
62796;SDS011;48839;48.546;-4.178;2023-06-24T03:30:21;8.93;;;5.30;;
62796;SDS011;48839;48.546;-4.178;2023-06-24T03:32:47;10.25;;;6.25;;
62796;SDS011;48839;48.546;-4.178;2023-06-24T03:35:13;10.63;;;6.25;;
62796;SDS011;48839;48.546;-4.178;2023-06-24T03:37:39;9.95;;;5.35;;
62796;SDS011;48839;48.546;-4.178;2023-06-24T03:40:05;11.07;;;5.13;;
62796;SDS011;48839;48.546;-4.178;2023-06-24T03:42:32;8.50;;;5.13;;
62796;SDS011;48839;48.546;-4.178;2023-06-24T03:44:58;8.70;;;5.00;;
62796;SDS011;48839;48.546;-4.178;2023-06-24T03:47:24;7.00;;;4.50;;
62796;SDS011;48839;48.546;-4.178;2023-06-24T03:49:50;9.65;;;4.65;;
62796;SDS011;48839;48.546;-4.178;2023-06-24T03:52:16;7.15;;;5.28;;
62796;SDS011;48839;48.546;-4.178;2023-06-24T03:54:42;7.82;;;4.75;;
62796;SDS011;48839;48.546;-4.178;2023-06-24T03:57:08;8.65;;;4.30;;
62796;SDS011;48839;48.546;-4.178;2023-06-24T03:59:35;6.43;;;4.80;;
62796;SDS011;48839;48.546;-4.178;2023-06-24T04:02:01;7.60;;;5.05;;
62796;SDS011;48839;48.546;-4.178;2023-06-24T04:04:27;6.85;;;4.60;;
62796;SDS011;48839;48.546;-4.178;2023-06-24T04:06:53;8.75;;;5.20;;
62796;SDS011;48839;48.546;-4.178;2023-06-24T04:09:19;12.18;;;5.50;;
62796;SDS011;48839;48.546;-4.178;2023-06-24T04:11:45;8.57;;;5.40;;
62796;SDS011;48839;48.546;-4.178;2023-06-24T04:14:11;9.00;;;5.75;;
62796;SDS011;48839;48.546;-4.178;2023-06-24T04:16:37;7.63;;;4.95;;
62796;SDS011;48839;48.546;-4.178;2023-06-24T04:19:03;7.78;;;5.55;;
62796;SDS011;48839;48.546;-4.178;2023-06-24T04:21:29;11.20;;;6.07;;
62796;SDS011;48839;48.546;-4.178;2023-06-24T04:23:55;12.98;;;6.10;;
62796;SDS011;48839;48.546;-4.178;2023-06-24T04:26:21;8.90;;;5.68;;
62796;SDS011;48839;48.546;-4.178;2023-06-24T04:28:47;10.57;;;6.78;;
62796;SDS011;48839;48.546;-4.178;2023-06-24T04:31:13;15.88;;;8.02;;
62796;SDS011;48839;48.546;-4.178;2023-06-24T04:33:39;17.92;;;8.73;;
62796;SDS011;48839;48.546;-4.178;2023-06-24T04:36:05;17.38;;;8.52;;
62796;SDS011;48839;48.546;-4.178;2023-06-24T04:38:31;13.00;;;7.03;;
62796;SDS011;48839;48.546;-4.178;2023-06-24T04:40:57;15.05;;;7.85;;
62796;SDS011;48839;48.546;-4.178;2023-06-24T04:43:24;14.05;;;7.97;;
62796;SDS011;48839;48.546;-4.178;2023-06-24T04:45:50;15.65;;;8.98;;
62796;SDS011;48839;48.546;-4.178;2023-06-24T04:48:16;16.83;;;9.13;;
62796;SDS011;48839;48.546;-4.178;2023-06-24T04:50:42;21.35;;;9.23;;
62796;SDS011;48839;48.546;-4.178;2023-06-24T04:53:08;16.80;;;8.27;;
62796;SDS011;48839;48.546;-4.178;2023-06-24T04:55:34;19.17;;;8.60;;
62796;SDS011;48839;48.546;-4.178;2023-06-24T04:58:00;17.25;;;8.02;;
62796;SDS011;48839;48.546;-4.178;2023-06-24T05:00:26;11.05;;;6.72;;
62796;SDS011;48839;48.546;-4.178;2023-06-24T05:02:52;17.38;;;8.20;;
62796;SDS011;48839;48.546;-4.178;2023-06-24T05:05:18;13.18;;;7.75;;
62796;SDS011;48839;48.546;-4.178;2023-06-24T05:07:45;17.50;;;8.02;;
62796;SDS011;48839;48.546;-4.178;2023-06-24T05:10:11;15.90;;;7.50;;
62796;SDS011;48839;48.546;-4.178;2023-06-24T05:12:37;15.65;;;7.75;;
62796;SDS011;48839;48.546;-4.178;2023-06-24T05:15:03;15.02;;;7.57;;
62796;SDS011;48839;48.546;-4.178;2023-06-24T05:17:29;16.85;;;8.20;;
62796;SDS011;48839;48.546;-4.178;2023-06-24T05:19:55;15.95;;;7.10;;
62796;SDS011;48839;48.546;-4.178;2023-06-24T05:22:21;18.50;;;7.05;;
62796;SDS011;48839;48.546;-4.178;2023-06-24T05:24:47;12.57;;;6.88;;
62796;SDS011;48839;48.546;-4.178;2023-06-24T05:27:13;14.27;;;6.75;;
62796;SDS011;48839;48.546;-4.178;2023-06-24T05:29:39;10.48;;;6.70;;
62796;SDS011;48839;48.546;-4.178;2023-06-24T05:32:05;10.52;;;5.72;;
62796;SDS011;48839;48.546;-4.178;2023-06-24T05:34:32;8.98;;;5.75;;
62796;SDS011;48839;48.546;-4.178;2023-06-24T05:36:58;7.22;;;5.20;;
62796;SDS011;48839;48.546;-4.178;2023-06-24T05:39:25;6.20;;;4.40;;
62796;SDS011;48839;48.546;-4.178;2023-06-24T05:41:51;8.18;;;5.13;;
62796;SDS011;48839;48.546;-4.178;2023-06-24T05:44:17;9.25;;;4.22;;
62796;SDS011;48839;48.546;-4.178;2023-06-24T05:46:43;5.90;;;4.28;;
62796;SDS011;48839;48.546;-4.178;2023-06-24T05:49:09;7.07;;;4.75;;
62796;SDS011;48839;48.546;-4.178;2023-06-24T05:51:35;9.10;;;4.20;;
62796;SDS011;48839;48.546;-4.178;2023-06-24T05:54:01;5.85;;;4.30;;
62796;SDS011;48839;48.546;-4.178;2023-06-24T05:56:28;4.97;;;3.97;;
62796;SDS011;48839;48.546;-4.178;2023-06-24T05:58:54;6.13;;;4.25;;
62796;SDS011;48839;48.546;-4.178;2023-06-24T06:01:20;5.75;;;4.20;;
62796;SDS011;48839;48.546;-4.178;2023-06-24T06:03:47;7.00;;;3.67;;
62796;SDS011;48839;48.546;-4.178;2023-06-24T06:06:13;5.70;;;3.70;;
62796;SDS011;48839;48.546;-4.178;2023-06-24T06:08:39;8.02;;;3.58;;
62796;SDS011;48839;48.546;-4.178;2023-06-24T06:11:05;4.70;;;3.92;;
62796;SDS011;48839;48.546;-4.178;2023-06-24T06:13:31;7.22;;;4.05;;
62796;SDS011;48839;48.546;-4.178;2023-06-24T06:15:57;5.57;;;3.72;;
62796;SDS011;48839;48.546;-4.178;2023-06-24T06:18:23;5.97;;;3.60;;
62796;SDS011;48839;48.546;-4.178;2023-06-24T06:20:49;3.60;;;3.08;;
62796;SDS011;48839;48.546;-4.178;2023-06-24T06:23:15;3.92;;;2.97;;
62796;SDS011;48839;48.546;-4.178;2023-06-24T06:25:42;3.25;;;2.63;;
62796;SDS011;48839;48.546;-4.178;2023-06-24T06:28:08;4.55;;;3.05;;
62796;SDS011;48839;48.546;-4.178;2023-06-24T06:30:34;4.53;;;2.63;;
62796;SDS011;48839;48.546;-4.178;2023-06-24T06:33:00;5.03;;;3.05;;
62796;SDS011;48839;48.546;-4.178;2023-06-24T06:35:26;2.35;;;2.15;;
62796;SDS011;48839;48.546;-4.178;2023-06-24T06:37:52;4.15;;;2.78;;
62796;SDS011;48839;48.546;-4.178;2023-06-24T06:40:19;3.72;;;2.63;;
62796;SDS011;48839;48.546;-4.178;2023-06-24T06:42:45;2.45;;;2.25;;
62796;SDS011;48839;48.546;-4.178;2023-06-24T06:45:11;4.75;;;2.45;;
62796;SDS011;48839;48.546;-4.178;2023-06-24T06:47:37;4.22;;;2.03;;
62796;SDS011;48839;48.546;-4.178;2023-06-24T06:50:04;3.17;;;2.30;;
62796;SDS011;48839;48.546;-4.178;2023-06-24T06:52:30;3.55;;;2.40;;
62796;SDS011;48839;48.546;-4.178;2023-06-24T06:54:56;3.53;;;2.05;;
62796;SDS011;48839;48.546;-4.178;2023-06-24T06:57:22;2.88;;;2.38;;
62796;SDS011;48839;48.546;-4.178;2023-06-24T06:59:48;4.25;;;2.28;;
62796;SDS011;48839;48.546;-4.178;2023-06-24T07:02:17;2.67;;;1.92;;
62796;SDS011;48839;48.546;-4.178;2023-06-24T07:04:43;3.28;;;2.20;;
62796;SDS011;48839;48.546;-4.178;2023-06-24T07:07:09;2.28;;;1.98;;
62796;SDS011;48839;48.546;-4.178;2023-06-24T07:09:36;3.42;;;2.28;;
62796;SDS011;48839;48.546;-4.178;2023-06-24T07:12:03;3.63;;;2.08;;
62796;SDS011;48839;48.546;-4.178;2023-06-24T07:14:29;3.03;;;2.00;;
62796;SDS011;48839;48.546;-4.178;2023-06-24T07:16:55;4.32;;;2.40;;
62796;SDS011;48839;48.546;-4.178;2023-06-24T07:19:21;2.67;;;2.15;;
62796;SDS011;48839;48.546;-4.178;2023-06-24T07:21:47;2.60;;;1.98;;
62796;SDS011;48839;48.546;-4.178;2023-06-24T07:24:13;5.55;;;2.10;;
62796;SDS011;48839;48.546;-4.178;2023-06-24T07:26:39;2.28;;;2.08;;
62796;SDS011;48839;48.546;-4.178;2023-06-24T07:29:05;4.65;;;2.20;;
62796;SDS011;48839;48.546;-4.178;2023-06-24T07:31:32;4.72;;;2.70;;
62796;SDS011;48839;48.546;-4.178;2023-06-24T07:33:58;3.05;;;2.05;;
62796;SDS011;48839;48.546;-4.178;2023-06-24T07:36:24;2.30;;;1.98;;
62796;SDS011;48839;48.546;-4.178;2023-06-24T07:38:50;4.25;;;2.63;;
62796;SDS011;48839;48.546;-4.178;2023-06-24T07:41:16;4.63;;;2.15;;
62796;SDS011;48839;48.546;-4.178;2023-06-24T07:43:42;5.85;;;2.15;;
62796;SDS011;48839;48.546;-4.178;2023-06-24T07:46:08;2.95;;;2.13;;
62796;SDS011;48839;48.546;-4.178;2023-06-24T07:48:34;3.55;;;2.35;;
62796;SDS011;48839;48.546;-4.178;2023-06-24T07:51:00;3.63;;;2.10;;
62796;SDS011;48839;48.546;-4.178;2023-06-24T07:53:26;2.40;;;2.05;;
62796;SDS011;48839;48.546;-4.178;2023-06-24T07:55:52;5.50;;;2.38;;
62796;SDS011;48839;48.546;-4.178;2023-06-24T07:58:18;5.78;;;2.58;;
62796;SDS011;48839;48.546;-4.178;2023-06-24T08:00:44;2.40;;;2.20;;
62796;SDS011;48839;48.546;-4.178;2023-06-24T08:03:12;3.08;;;2.15;;
62796;SDS011;48839;48.546;-4.178;2023-06-24T08:05:38;4.75;;;2.13;;
62796;SDS011;48839;48.546;-4.178;2023-06-24T08:08:04;2.85;;;2.40;;
62796;SDS011;48839;48.546;-4.178;2023-06-24T08:10:30;2.70;;;2.20;;
62796;SDS011;48839;48.546;-4.178;2023-06-24T08:12:56;4.80;;;2.38;;
62796;SDS011;48839;48.546;-4.178;2023-06-24T08:15:22;3.20;;;2.47;;
62796;SDS011;48839;48.546;-4.178;2023-06-24T08:17:52;2.53;;;2.05;;
62796;SDS011;48839;48.546;-4.178;2023-06-24T08:20:22;4.55;;;2.58;;
62796;SDS011;48839;48.546;-4.178;2023-06-24T08:22:48;3.97;;;2.30;;
62796;SDS011;48839;48.546;-4.178;2023-06-24T08:25:15;3.38;;;2.13;;
62796;SDS011;48839;48.546;-4.178;2023-06-24T08:27:41;2.35;;;1.65;;
62796;SDS011;48839;48.546;-4.178;2023-06-24T08:30:11;3.85;;;2.53;;
62796;SDS011;48839;48.546;-4.178;2023-06-24T08:32:37;4.85;;;2.00;;
62796;SDS011;48839;48.546;-4.178;2023-06-24T08:35:05;3.78;;;2.10;;
62796;SDS011;48839;48.546;-4.178;2023-06-24T08:37:31;3.88;;;2.10;;
62796;SDS011;48839;48.546;-4.178;2023-06-24T08:39:57;3.50;;;1.98;;
62796;SDS011;48839;48.546;-4.178;2023-06-24T08:42:23;2.47;;;1.90;;
62796;SDS011;48839;48.546;-4.178;2023-06-24T08:44:49;4.30;;;2.30;;
62796;SDS011;48839;48.546;-4.178;2023-06-24T08:47:16;3.10;;;2.25;;
62796;SDS011;48839;48.546;-4.178;2023-06-24T08:49:51;2.50;;;2.30;;
62796;SDS011;48839;48.546;-4.178;2023-06-24T08:52:20;3.03;;;1.77;;
62796;SDS011;48839;48.546;-4.178;2023-06-24T08:54:51;2.65;;;2.10;;
62796;SDS011;48839;48.546;-4.178;2023-06-24T08:57:17;3.55;;;2.03;;
62796;SDS011;48839;48.546;-4.178;2023-06-24T08:59:43;2.58;;;2.35;;
62796;SDS011;48839;48.546;-4.178;2023-06-24T09:02:09;2.70;;;2.13;;
62796;SDS011;48839;48.546;-4.178;2023-06-24T09:04:36;3.08;;;1.95;;
62796;SDS011;48839;48.546;-4.178;2023-06-24T09:07:02;4.00;;;1.90;;
62796;SDS011;48839;48.546;-4.178;2023-06-24T09:09:28;2.60;;;2.13;;
62796;SDS011;48839;48.546;-4.178;2023-06-24T09:11:56;2.92;;;2.08;;
62796;SDS011;48839;48.546;-4.178;2023-06-24T09:14:26;2.63;;;2.17;;
62796;SDS011;48839;48.546;-4.178;2023-06-24T09:16:56;2.90;;;2.05;;
62796;SDS011;48839;48.546;-4.178;2023-06-24T09:19:23;2.42;;;1.92;;
62796;SDS011;48839;48.546;-4.178;2023-06-24T09:21:50;4.50;;;1.90;;
62796;SDS011;48839;48.546;-4.178;2023-06-24T09:24:19;3.70;;;2.00;;
62796;SDS011;48839;48.546;-4.178;2023-06-24T09:26:45;3.88;;;1.80;;
62796;SDS011;48839;48.546;-4.178;2023-06-24T09:29:14;2.13;;;1.92;;
62796;SDS011;48839;48.546;-4.178;2023-06-24T09:31:50;4.97;;;2.22;;
62796;SDS011;48839;48.546;-4.178;2023-06-24T09:34:21;6.28;;;2.15;;
62796;SDS011;48839;48.546;-4.178;2023-06-24T09:36:53;3.08;;;2.03;;
62796;SDS011;48839;48.546;-4.178;2023-06-24T09:39:20;2.85;;;1.90;;
62796;SDS011;48839;48.546;-4.178;2023-06-24T09:41:54;2.00;;;1.70;;
62796;SDS011;48839;48.546;-4.178;2023-06-24T09:44:20;4.75;;;1.95;;
62796;SDS011;48839;48.546;-4.178;2023-06-24T09:46:46;5.22;;;1.92;;
62796;SDS011;48839;48.546;-4.178;2023-06-24T09:49:13;3.72;;;2.05;;
62796;SDS011;48839;48.546;-4.178;2023-06-24T09:51:43;2.13;;;1.83;;
62796;SDS011;48839;48.546;-4.178;2023-06-24T09:54:11;4.43;;;1.90;;
62796;SDS011;48839;48.546;-4.178;2023-06-24T09:56:38;2.90;;;2.15;;
62796;SDS011;48839;48.546;-4.178;2023-06-24T09:59:05;2.25;;;1.77;;
62796;SDS011;48839;48.546;-4.178;2023-06-24T10:01:41;4.57;;;2.10;;
62796;SDS011;48839;48.546;-4.178;2023-06-24T10:04:15;2.65;;;1.60;;
62796;SDS011;48839;48.546;-4.178;2023-06-24T10:06:41;4.97;;;2.00;;
62796;SDS011;48839;48.546;-4.178;2023-06-24T10:09:08;3.30;;;1.90;;
62796;SDS011;48839;48.546;-4.178;2023-06-24T10:11:34;2.42;;;1.95;;
62796;SDS011;48839;48.546;-4.178;2023-06-24T10:14:00;4.43;;;2.05;;
62796;SDS011;48839;48.546;-4.178;2023-06-24T10:16:26;6.40;;;2.50;;
62796;SDS011;48839;48.546;-4.178;2023-06-24T10:18:52;4.18;;;2.22;;
62796;SDS011;48839;48.546;-4.178;2023-06-24T10:21:26;2.95;;;2.10;;
62796;SDS011;48839;48.546;-4.178;2023-06-24T10:24:10;4.88;;;2.83;;
62796;SDS011;48839;48.546;-4.178;2023-06-24T10:26:36;3.28;;;2.30;;
62796;SDS011;48839;48.546;-4.178;2023-06-24T10:34:22;3.45;;;2.30;;
62796;SDS011;48839;48.546;-4.178;2023-06-24T10:37:04;4.50;;;2.10;;
62796;SDS011;48839;48.546;-4.178;2023-06-24T10:44:51;3.10;;;2.15;;
62796;SDS011;48839;48.546;-4.178;2023-06-24T10:47:17;3.22;;;2.38;;
62796;SDS011;48839;48.546;-4.178;2023-06-24T10:49:43;2.05;;;1.80;;
62796;SDS011;48839;48.546;-4.178;2023-06-24T10:52:10;3.63;;;2.20;;
62796;SDS011;48839;48.546;-4.178;2023-06-24T10:54:39;3.40;;;2.40;;
62796;SDS011;48839;48.546;-4.178;2023-06-24T10:57:06;2.83;;;2.35;;
62796;SDS011;48839;48.546;-4.178;2023-06-24T10:59:51;2.53;;;2.28;;
62796;SDS011;48839;48.546;-4.178;2023-06-24T11:02:18;3.03;;;2.15;;
62796;SDS011;48839;48.546;-4.178;2023-06-24T11:07:10;2.47;;;1.98;;
62796;SDS011;48839;48.546;-4.178;2023-06-24T11:09:36;2.55;;;2.15;;
62796;SDS011;48839;48.546;-4.178;2023-06-24T11:12:03;3.00;;;2.17;;
62796;SDS011;48839;48.546;-4.178;2023-06-24T11:14:29;3.13;;;2.40;;
62796;SDS011;48839;48.546;-4.178;2023-06-24T11:16:55;2.80;;;2.33;;
62796;SDS011;48839;48.546;-4.178;2023-06-24T11:19:21;2.45;;;2.22;;
62796;SDS011;48839;48.546;-4.178;2023-06-24T11:21:47;2.53;;;2.13;;
62796;SDS011;48839;48.546;-4.178;2023-06-24T11:24:13;2.28;;;2.03;;
62796;SDS011;48839;48.546;-4.178;2023-06-24T11:26:39;2.25;;;2.05;;
62796;SDS011;48839;48.546;-4.178;2023-06-24T11:29:11;3.20;;;2.47;;
62796;SDS011;48839;48.546;-4.178;2023-06-24T11:31:37;4.88;;;2.30;;
62796;SDS011;48839;48.546;-4.178;2023-06-24T11:34:04;4.82;;;2.33;;
62796;SDS011;48839;48.546;-4.178;2023-06-24T11:36:30;3.50;;;2.33;;
62796;SDS011;48839;48.546;-4.178;2023-06-24T11:38:57;4.53;;;2.25;;
62796;SDS011;48839;48.546;-4.178;2023-06-24T11:41:23;2.47;;;2.10;;
62796;SDS011;48839;48.546;-4.178;2023-06-24T11:43:51;3.65;;;2.42;;
62796;SDS011;48839;48.546;-4.178;2023-06-24T11:46:30;2.45;;;2.03;;
62796;SDS011;48839;48.546;-4.178;2023-06-24T11:49:04;4.13;;;2.15;;
62796;SDS011;48839;48.546;-4.178;2023-06-24T11:51:30;3.88;;;2.33;;
62796;SDS011;48839;48.546;-4.178;2023-06-24T11:53:58;3.88;;;2.25;;
62796;SDS011;48839;48.546;-4.178;2023-06-24T11:56:38;3.40;;;2.65;;
62796;SDS011;48839;48.546;-4.178;2023-06-24T11:59:04;2.60;;;2.10;;
62796;SDS011;48839;48.546;-4.178;2023-06-24T12:01:33;2.25;;;2.00;;
62796;SDS011;48839;48.546;-4.178;2023-06-24T12:04:36;3.17;;;2.60;;
62796;SDS011;48839;48.546;-4.178;2023-06-24T12:06:55;2.40;;;2.20;;
62796;SDS011;48839;48.546;-4.178;2023-06-24T12:09:21;4.30;;;2.42;;
62796;SDS011;48839;48.546;-4.178;2023-06-24T12:11:47;2.70;;;2.00;;
62796;SDS011;48839;48.546;-4.178;2023-06-24T12:14:14;3.30;;;2.45;;
62796;SDS011;48839;48.546;-4.178;2023-06-24T12:16:40;2.58;;;2.00;;
62796;SDS011;48839;48.546;-4.178;2023-06-24T12:19:06;3.83;;;3.15;;
62796;SDS011;48839;48.546;-4.178;2023-06-24T12:21:32;2.45;;;2.22;;
62796;SDS011;48839;48.546;-4.178;2023-06-24T12:23:59;3.13;;;2.20;;
62796;SDS011;48839;48.546;-4.178;2023-06-24T12:26:25;3.38;;;2.97;;
62796;SDS011;48839;48.546;-4.178;2023-06-24T12:28:53;3.20;;;2.22;;
62796;SDS011;48839;48.546;-4.178;2023-06-24T12:31:20;3.35;;;2.47;;
62796;SDS011;48839;48.546;-4.178;2023-06-24T12:33:46;2.53;;;2.33;;
62796;SDS011;48839;48.546;-4.178;2023-06-24T12:36:12;3.33;;;2.20;;
62796;SDS011;48839;48.546;-4.178;2023-06-24T12:38:38;2.78;;;2.20;;
62796;SDS011;48839;48.546;-4.178;2023-06-24T12:41:05;3.95;;;2.20;;
62796;SDS011;48839;48.546;-4.178;2023-06-24T12:43:32;2.97;;;2.13;;
62796;SDS011;48839;48.546;-4.178;2023-06-24T12:45:58;3.67;;;2.15;;
62796;SDS011;48839;48.546;-4.178;2023-06-24T12:48:24;2.65;;;2.42;;
62796;SDS011;48839;48.546;-4.178;2023-06-24T12:50:50;4.72;;;2.08;;
62796;SDS011;48839;48.546;-4.178;2023-06-24T12:53:18;3.53;;;2.17;;
62796;SDS011;48839;48.546;-4.178;2023-06-24T12:55:44;4.18;;;2.33;;
62796;SDS011;48839;48.546;-4.178;2023-06-24T12:58:10;6.28;;;2.58;;
62796;SDS011;48839;48.546;-4.178;2023-06-24T13:00:36;3.47;;;2.20;;
62796;SDS011;48839;48.546;-4.178;2023-06-24T13:03:02;5.05;;;2.10;;
62796;SDS011;48839;48.546;-4.178;2023-06-24T13:05:29;3.28;;;2.30;;
62796;SDS011;48839;48.546;-4.178;2023-06-24T13:07:56;3.40;;;2.10;;
62796;SDS011;48839;48.546;-4.178;2023-06-24T13:10:21;6.70;;;2.15;;
62796;SDS011;48839;48.546;-4.178;2023-06-24T13:12:48;3.47;;;2.35;;
62796;SDS011;48839;48.546;-4.178;2023-06-24T13:15:14;3.53;;;2.38;;
62796;SDS011;48839;48.546;-4.178;2023-06-24T13:17:40;4.28;;;2.05;;
62796;SDS011;48839;48.546;-4.178;2023-06-24T13:20:06;2.78;;;2.53;;
62796;SDS011;48839;48.546;-4.178;2023-06-24T13:22:33;2.95;;;2.10;;
62796;SDS011;48839;48.546;-4.178;2023-06-24T13:24:59;4.50;;;2.55;;
62796;SDS011;48839;48.546;-4.178;2023-06-24T13:27:25;3.05;;;2.47;;
62796;SDS011;48839;48.546;-4.178;2023-06-24T13:29:51;3.13;;;2.67;;
62796;SDS011;48839;48.546;-4.178;2023-06-24T13:32:17;2.60;;;2.10;;
62796;SDS011;48839;48.546;-4.178;2023-06-24T13:34:44;3.42;;;2.33;;
62796;SDS011;48839;48.546;-4.178;2023-06-24T13:37:10;5.03;;;2.08;;
62796;SDS011;48839;48.546;-4.178;2023-06-24T13:39:36;5.07;;;2.30;;
62796;SDS011;48839;48.546;-4.178;2023-06-24T13:42:02;2.78;;;2.20;;
62796;SDS011;48839;48.546;-4.178;2023-06-24T13:44:28;5.28;;;2.38;;
62796;SDS011;48839;48.546;-4.178;2023-06-24T13:46:54;3.58;;;2.45;;
62796;SDS011;48839;48.546;-4.178;2023-06-24T13:49:20;2.53;;;2.10;;
62796;SDS011;48839;48.546;-4.178;2023-06-24T13:51:46;2.88;;;2.40;;
62796;SDS011;48839;48.546;-4.178;2023-06-24T13:54:12;4.07;;;2.35;;
62796;SDS011;48839;48.546;-4.178;2023-06-24T13:56:38;4.28;;;2.17;;
62796;SDS011;48839;48.546;-4.178;2023-06-24T13:59:04;3.25;;;2.35;;
62796;SDS011;48839;48.546;-4.178;2023-06-24T14:01:30;3.08;;;2.13;;
62796;SDS011;48839;48.546;-4.178;2023-06-24T14:03:56;2.65;;;2.35;;
62796;SDS011;48839;48.546;-4.178;2023-06-24T14:06:23;3.42;;;2.42;;
62796;SDS011;48839;48.546;-4.178;2023-06-24T14:08:49;3.25;;;2.70;;
62796;SDS011;48839;48.546;-4.178;2023-06-24T14:11:15;3.72;;;2.28;;
62796;SDS011;48839;48.546;-4.178;2023-06-24T14:13:42;2.33;;;2.00;;
62796;SDS011;48839;48.546;-4.178;2023-06-24T14:16:08;6.40;;;2.22;;
62796;SDS011;48839;48.546;-4.178;2023-06-24T14:18:35;3.03;;;2.35;;
62796;SDS011;48839;48.546;-4.178;2023-06-24T14:21:02;3.55;;;2.30;;
62796;SDS011;48839;48.546;-4.178;2023-06-24T14:23:28;2.67;;;2.17;;
62796;SDS011;48839;48.546;-4.178;2023-06-24T14:25:54;4.20;;;2.20;;
62796;SDS011;48839;48.546;-4.178;2023-06-24T14:28:20;3.40;;;2.60;;
62796;SDS011;48839;48.546;-4.178;2023-06-24T14:30:47;3.55;;;2.53;;
62796;SDS011;48839;48.546;-4.178;2023-06-24T14:33:13;3.97;;;2.13;;
62796;SDS011;48839;48.546;-4.178;2023-06-24T14:35:40;2.97;;;2.55;;
62796;SDS011;48839;48.546;-4.178;2023-06-24T14:38:06;7.28;;;2.67;;
62796;SDS011;48839;48.546;-4.178;2023-06-24T14:40:32;4.75;;;2.70;;
62796;SDS011;48839;48.546;-4.178;2023-06-24T14:42:58;3.55;;;2.17;;
62796;SDS011;48839;48.546;-4.178;2023-06-24T14:45:25;2.88;;;2.35;;
62796;SDS011;48839;48.546;-4.178;2023-06-24T14:47:51;4.32;;;2.10;;
62796;SDS011;48839;48.546;-4.178;2023-06-24T14:50:17;4.38;;;2.20;;